Sandy Level, Virginia
Current Conditions -  °F | °C
As of 8:53 AM on Saturday 25 Oct 2014 (Local Time) from KDAN Reporting Station
Clear Clear  
Wind Chill: 42°   Ceiling: Unl
Heat Index: 42°   Visibility: 10mi
Dew Point: 40°   Wind: 3mph
Humidity: 92%   Direction: 230°SW
Pressure: 30.04"   Gusts: NA
Location:  36.96°N, 79.55°W
Report Text: KDAN 251253Z AUTO 23003KT 10SM CLR 06/04 A3004 RMK AO2 SLP168 T00560044
Loading
Personal Weather Stations






























Interactive Weather Map
Tropical Storm Tracking
New forecast layout! Learn more

10-Day Weather Forecast

Advertisements
Track Severe Weather on mobile